sensor_id;sensor_type;location;lat;lon;timestamp;P1;P2;P0
43280;PMS5003;62175;49.416;8.690;2022-07-11T00:00:51;5;5;
43280;PMS5003;62175;49.416;8.690;2022-07-11T00:03:18;5;5;
43280;PMS5003;62175;49.416;8.690;2022-07-11T00:05:45;7;7;
43280;PMS5003;62175;49.416;8.690;2022-07-11T00:08:12;7;6;
43280;PMS5003;62175;49.416;8.690;2022-07-11T00:10:39;5;5;
43280;PMS5003;62175;49.416;8.690;2022-07-11T00:13:06;6;6;
43280;PMS5003;62175;49.416;8.690;2022-07-11T00:15:33;7;6;
43280;PMS5003;62175;49.416;8.690;2022-07-11T00:18:00;7;7;
43280;PMS5003;62175;49.416;8.690;2022-07-11T00:20:27;10;9;
43280;PMS5003;62175;49.416;8.690;2022-07-11T00:22:54;6;6;
43280;PMS5003;62175;49.416;8.690;2022-07-11T00:25:21;9;9;
43280;PMS5003;62175;49.416;8.690;2022-07-11T00:27:48;9;8;
43280;PMS5003;62175;49.416;8.690;2022-07-11T00:30:16;11;11;
43280;PMS5003;62175;49.416;8.690;2022-07-11T00:35:01;15;14;
43280;PMS5003;62175;49.416;8.690;2022-07-11T00:37:29;20;19;
43280;PMS5003;62175;49.416;8.690;2022-07-11T00:39:57;20;19;
43280;PMS5003;62175;49.416;8.690;2022-07-11T00:42:26;23;20;
43280;PMS5003;62175;49.416;8.690;2022-07-11T00:44:54;22;21;
43280;PMS5003;62175;49.416;8.690;2022-07-11T00:47:22;29;25;
43280;PMS5003;62175;49.416;8.690;2022-07-11T00:49:50;21;20;
43280;PMS5003;62175;49.416;8.690;2022-07-11T00:52:17;21;19;
43280;PMS5003;62175;49.416;8.690;2022-07-11T00:54:45;21;20;
43280;PMS5003;62175;49.416;8.690;2022-07-11T00:57:13;15;15;
43280;PMS5003;62175;49.416;8.690;2022-07-11T00:59:40;15;14;
43280;PMS5003;62175;49.416;8.690;2022-07-11T01:02:07;12;12;
43280;PMS5003;62175;49.416;8.690;2022-07-11T01:04:34;11;10;
43280;PMS5003;62175;49.416;8.690;2022-07-11T01:07:01;11;10;
43280;PMS5003;62175;49.416;8.690;2022-07-11T01:09:29;9;9;
43280;PMS5003;62175;49.416;8.690;2022-07-11T01:11:56;9;9;
43280;PMS5003;62175;49.416;8.690;2022-07-11T01:14:23;8;7;
43280;PMS5003;62175;49.416;8.690;2022-07-11T01:16:50;10;8;
43280;PMS5003;62175;49.416;8.690;2022-07-11T01:19:18;7;7;
43280;PMS5003;62175;49.416;8.690;2022-07-11T01:21:47;9;9;
43280;PMS5003;62175;49.416;8.690;2022-07-11T01:24:16;7;7;
43280;PMS5003;62175;49.416;8.690;2022-07-11T01:26:44;7;7;
43280;PMS5003;62175;49.416;8.690;2022-07-11T01:29:13;8;7;
43280;PMS5003;62175;49.416;8.690;2022-07-11T01:31:40;7;7;
43280;PMS5003;62175;49.416;8.690;2022-07-11T01:34:09;9;9;
43280;PMS5003;62175;49.416;8.690;2022-07-11T01:36:37;7;7;
43280;PMS5003;62175;49.416;8.690;2022-07-11T01:39:05;7;7;
43280;PMS5003;62175;49.416;8.690;2022-07-11T01:41:32;7;7;
43280;PMS5003;62175;49.416;8.690;2022-07-11T01:43:59;7;7;
43280;PMS5003;62175;49.416;8.690;2022-07-11T01:46:27;7;7;
43280;PMS5003;62175;49.416;8.690;2022-07-11T01:48:54;9;8;
43280;PMS5003;62175;49.416;8.690;2022-07-11T01:51:22;6;6;
43280;PMS5003;62175;49.416;8.690;2022-07-11T01:53:50;9;7;
43280;PMS5003;62175;49.416;8.690;2022-07-11T01:56:17;8;8;
43280;PMS5003;62175;49.416;8.690;2022-07-11T01:58:44;8;7;
43280;PMS5003;62175;49.416;8.690;2022-07-11T02:01:11;8;7;
43280;PMS5003;62175;49.416;8.690;2022-07-11T02:03:38;8;8;
43280;PMS5003;62175;49.416;8.690;2022-07-11T02:06:05;8;7;
43280;PMS5003;62175;49.416;8.690;2022-07-11T02:08:32;8;8;
43280;PMS5003;62175;49.416;8.690;2022-07-11T02:11:00;6;6;
43280;PMS5003;62175;49.416;8.690;2022-07-11T02:13:27;6;5;
43280;PMS5003;62175;49.416;8.690;2022-07-11T02:15:55;7;7;
43280;PMS5003;62175;49.416;8.690;2022-07-11T02:18:23;7;7;
43280;PMS5003;62175;49.416;8.690;2022-07-11T02:20:50;7;7;
43280;PMS5003;62175;49.416;8.690;2022-07-11T02:23:17;10;9;
43280;PMS5003;62175;49.416;8.690;2022-07-11T02:25:45;6;5;
43280;PMS5003;62175;49.416;8.690;2022-07-11T02:28:13;8;8;
43280;PMS5003;62175;49.416;8.690;2022-07-11T02:30:42;7;6;
43280;PMS5003;62175;49.416;8.690;2022-07-11T02:33:11;7;7;
43280;PMS5003;62175;49.416;8.690;2022-07-11T02:35:38;5;5;
43280;PMS5003;62175;49.416;8.690;2022-07-11T02:38:05;7;7;
43280;PMS5003;62175;49.416;8.690;2022-07-11T02:40:32;6;6;
43280;PMS5003;62175;49.416;8.690;2022-07-11T02:43:00;7;7;
43280;PMS5003;62175;49.416;8.690;2022-07-11T02:45:28;7;7;
43280;PMS5003;62175;49.416;8.690;2022-07-11T02:47:56;6;6;
43280;PMS5003;62175;49.416;8.690;2022-07-11T02:50:26;10;9;
43280;PMS5003;62175;49.416;8.690;2022-07-11T02:52:54;7;7;
43280;PMS5003;62175;49.416;8.690;2022-07-11T02:55:21;10;8;
43280;PMS5003;62175;49.416;8.690;2022-07-11T02:57:48;6;6;
43280;PMS5003;62175;49.416;8.690;2022-07-11T03:00:16;8;8;
43280;PMS5003;62175;49.416;8.690;2022-07-11T03:02:44;7;7;
43280;PMS5003;62175;49.416;8.690;2022-07-11T03:05:12;7;7;
43280;PMS5003;62175;49.416;8.690;2022-07-11T03:07:39;9;8;
43280;PMS5003;62175;49.416;8.690;2022-07-11T03:10:08;6;6;
43280;PMS5003;62175;49.416;8.690;2022-07-11T03:12:35;7;6;
43280;PMS5003;62175;49.416;8.690;2022-07-11T03:15:02;7;7;
43280;PMS5003;62175;49.416;8.690;2022-07-11T03:17:31;6;5;
43280;PMS5003;62175;49.416;8.690;2022-07-11T03:19:58;5;5;
43280;PMS5003;62175;49.416;8.690;2022-07-11T03:22:25;8;8;
43280;PMS5003;62175;49.416;8.690;2022-07-11T03:24:52;7;7;
43280;PMS5003;62175;49.416;8.690;2022-07-11T03:27:19;8;8;
43280;PMS5003;62175;49.416;8.690;2022-07-11T03:29:46;9;9;
43280;PMS5003;62175;49.416;8.690;2022-07-11T03:32:13;7;7;
43280;PMS5003;62175;49.416;8.690;2022-07-11T03:34:40;8;7;
43280;PMS5003;62175;49.416;8.690;2022-07-11T03:37:07;8;8;
43280;PMS5003;62175;49.416;8.690;2022-07-11T03:39:34;7;7;
43280;PMS5003;62175;49.416;8.690;2022-07-11T03:42:01;8;7;
43280;PMS5003;62175;49.416;8.690;2022-07-11T03:44:29;6;5;
43280;PMS5003;62175;49.416;8.690;2022-07-11T03:46:56;6;6;
43280;PMS5003;62175;49.416;8.690;2022-07-11T03:49:23;7;7;
43280;PMS5003;62175;49.416;8.690;2022-07-11T03:51:52;6;6;
43280;PMS5003;62175;49.416;8.690;2022-07-11T03:54:19;8;8;
43280;PMS5003;62175;49.416;8.690;2022-07-11T03:56:46;9;7;
43280;PMS5003;62175;49.416;8.690;2022-07-11T03:59:12;7;7;
43280;PMS5003;62175;49.416;8.690;2022-07-11T04:01:39;7;7;
43280;PMS5003;62175;49.416;8.690;2022-07-11T04:04:15;6;6;
43280;PMS5003;62175;49.416;8.690;2022-07-11T04:06:44;9;8;
43280;PMS5003;62175;49.416;8.690;2022-07-11T04:09:12;7;7;
43280;PMS5003;62175;49.416;8.690;2022-07-11T04:11:39;7;7;
43280;PMS5003;62175;49.416;8.690;2022-07-11T04:14:06;9;8;
43280;PMS5003;62175;49.416;8.690;2022-07-11T04:16:33;11;9;
43280;PMS5003;62175;49.416;8.690;2022-07-11T04:19:00;8;7;
43280;PMS5003;62175;49.416;8.690;2022-07-11T04:21:27;7;7;
43280;PMS5003;62175;49.416;8.690;2022-07-11T04:23:54;7;7;
43280;PMS5003;62175;49.416;8.690;2022-07-11T04:26:21;8;7;
43280;PMS5003;62175;49.416;8.690;2022-07-11T04:28:50;7;7;
43280;PMS5003;62175;49.416;8.690;2022-07-11T04:31:17;7;6;
43280;PMS5003;62175;49.416;8.690;2022-07-11T04:33:44;8;7;
43280;PMS5003;62175;49.416;8.690;2022-07-11T04:36:11;8;7;
43280;PMS5003;62175;49.416;8.690;2022-07-11T04:38:39;7;7;
43280;PMS5003;62175;49.416;8.690;2022-07-11T04:41:06;7;6;
43280;PMS5003;62175;49.416;8.690;2022-07-11T04:43:33;7;6;
43280;PMS5003;62175;49.416;8.690;2022-07-11T04:46:01;7;7;
43280;PMS5003;62175;49.416;8.690;2022-07-11T04:48:28;8;8;
43280;PMS5003;62175;49.416;8.690;2022-07-11T04:50:56;5;5;
43280;PMS5003;62175;49.416;8.690;2022-07-11T04:53:22;6;6;
43280;PMS5003;62175;49.416;8.690;2022-07-11T04:55:49;9;7;
43280;PMS5003;62175;49.416;8.690;2022-07-11T04:58:17;8;7;
43280;PMS5003;62175;49.416;8.690;2022-07-11T05:00:44;10;9;
43280;PMS5003;62175;49.416;8.690;2022-07-11T05:03:11;7;6;
43280;PMS5003;62175;49.416;8.690;2022-07-11T05:05:38;8;8;
43280;PMS5003;62175;49.416;8.690;2022-07-11T05:08:06;7;7;
43280;PMS5003;62175;49.416;8.690;2022-07-11T05:10:33;9;9;
43280;PMS5003;62175;49.416;8.690;2022-07-11T05:13:00;7;7;
43280;PMS5003;62175;49.416;8.690;2022-07-11T05:15:27;8;8;
43280;PMS5003;62175;49.416;8.690;2022-07-11T05:17:55;9;9;
43280;PMS5003;62175;49.416;8.690;2022-07-11T05:20:22;9;9;
43280;PMS5003;62175;49.416;8.690;2022-07-11T05:22:49;8;8;
43280;PMS5003;62175;49.416;8.690;2022-07-11T05:25:17;10;9;
43280;PMS5003;62175;49.416;8.690;2022-07-11T05:27:48;8;8;
43280;PMS5003;62175;49.416;8.690;2022-07-11T05:30:15;7;7;
43280;PMS5003;62175;49.416;8.690;2022-07-11T05:32:43;9;8;
43280;PMS5003;62175;49.416;8.690;2022-07-11T05:35:10;9;9;
43280;PMS5003;62175;49.416;8.690;2022-07-11T05:37:38;8;8;
43280;PMS5003;62175;49.416;8.690;2022-07-11T05:40:06;9;8;
43280;PMS5003;62175;49.416;8.690;2022-07-11T05:42:35;8;8;
43280;PMS5003;62175;49.416;8.690;2022-07-11T05:45:03;7;7;
43280;PMS5003;62175;49.416;8.690;2022-07-11T05:47:30;9;9;
43280;PMS5003;62175;49.416;8.690;2022-07-11T05:49:58;10;9;
43280;PMS5003;62175;49.416;8.690;2022-07-11T05:52:25;8;7;
43280;PMS5003;62175;49.416;8.690;2022-07-11T05:54:52;9;9;
43280;PMS5003;62175;49.416;8.690;2022-07-11T05:57:19;9;8;
43280;PMS5003;62175;49.416;8.690;2022-07-11T05:59:46;8;8;
43280;PMS5003;62175;49.416;8.690;2022-07-11T06:02:13;8;8;
43280;PMS5003;62175;49.416;8.690;2022-07-11T06:04:39;9;8;
43280;PMS5003;62175;49.416;8.690;2022-07-11T06:07:08;7;7;
43280;PMS5003;62175;49.416;8.690;2022-07-11T06:09:35;12;11;
43280;PMS5003;62175;49.416;8.690;2022-07-11T06:12:02;8;8;
43280;PMS5003;62175;49.416;8.690;2022-07-11T06:14:30;9;9;
43280;PMS5003;62175;49.416;8.690;2022-07-11T06:16:58;8;8;
43280;PMS5003;62175;49.416;8.690;2022-07-11T06:19:25;9;8;
43280;PMS5003;62175;49.416;8.690;2022-07-11T06:21:52;8;8;
43280;PMS5003;62175;49.416;8.690;2022-07-11T06:24:20;11;10;
43280;PMS5003;62175;49.416;8.690;2022-07-11T06:35:17;10;10;
43280;PMS5003;62175;49.416;8.690;2022-07-11T06:42:01;9;9;
43280;PMS5003;62175;49.416;8.690;2022-07-11T06:45:25;9;9;
43280;PMS5003;62175;49.416;8.690;2022-07-11T06:51:55;9;9;
43280;PMS5003;62175;49.416;8.690;2022-07-11T06:54:26;9;9;
43280;PMS5003;62175;49.416;8.690;2022-07-11T06:56:54;6;6;
43280;PMS5003;62175;49.416;8.690;2022-07-11T06:59:21;8;8;
43280;PMS5003;62175;49.416;8.690;2022-07-11T07:01:48;7;7;
43280;PMS5003;62175;49.416;8.690;2022-07-11T07:04:15;9;9;
43280;PMS5003;62175;49.416;8.690;2022-07-11T07:06:43;10;10;
43280;PMS5003;62175;49.416;8.690;2022-07-11T07:09:10;10;10;
43280;PMS5003;62175;49.416;8.690;2022-07-11T07:11:37;9;9;
43280;PMS5003;62175;49.416;8.690;2022-07-11T07:14:04;9;9;
43280;PMS5003;62175;49.416;8.690;2022-07-11T07:16:30;9;8;
43280;PMS5003;62175;49.416;8.690;2022-07-11T07:18:57;10;10;
43280;PMS5003;62175;49.416;8.690;2022-07-11T07:21:25;8;8;
43280;PMS5003;62175;49.416;8.690;2022-07-11T07:23:52;9;8;
43280;PMS5003;62175;49.416;8.690;2022-07-11T07:26:19;9;9;
43280;PMS5003;62175;49.416;8.690;2022-07-11T07:28:46;11;10;
43280;PMS5003;62175;49.416;8.690;2022-07-11T07:31:13;6;6;
43280;PMS5003;62175;49.416;8.690;2022-07-11T07:33:40;8;8;
43280;PMS5003;62175;49.416;8.690;2022-07-11T07:36:07;8;8;
43280;PMS5003;62175;49.416;8.690;2022-07-11T07:38:36;9;9;
43280;PMS5003;62175;49.416;8.690;2022-07-11T07:41:04;7;6;
43280;PMS5003;62175;49.416;8.690;2022-07-11T07:43:30;8;8;
43280;PMS5003;62175;49.416;8.690;2022-07-11T07:45:57;8;8;
43280;PMS5003;62175;49.416;8.690;2022-07-11T07:48:25;10;9;
43280;PMS5003;62175;49.416;8.690;2022-07-11T07:50:52;8;8;
43280;PMS5003;62175;49.416;8.690;2022-07-11T07:53:20;12;12;
43280;PMS5003;62175;49.416;8.690;2022-07-11T07:55:46;8;8;
43280;PMS5003;62175;49.416;8.690;2022-07-11T07:58:13;9;9;
43280;PMS5003;62175;49.416;8.690;2022-07-11T08:00:40;7;7;
43280;PMS5003;62175;49.416;8.690;2022-07-11T08:03:07;9;9;
43280;PMS5003;62175;49.416;8.690;2022-07-11T08:05:35;8;8;
43280;PMS5003;62175;49.416;8.690;2022-07-11T08:08:02;10;8;
43280;PMS5003;62175;49.416;8.690;2022-07-11T08:10:30;10;9;
43280;PMS5003;62175;49.416;8.690;2022-07-11T08:12:57;7;7;
43280;PMS5003;62175;49.416;8.690;2022-07-11T08:15:25;9;9;
43280;PMS5003;62175;49.416;8.690;2022-07-11T08:17:51;6;6;
43280;PMS5003;62175;49.416;8.690;2022-07-11T08:20:19;11;10;
43280;PMS5003;62175;49.416;8.690;2022-07-11T08:22:46;9;9;
43280;PMS5003;62175;49.416;8.690;2022-07-11T08:25:13;10;9;
43280;PMS5003;62175;49.416;8.690;2022-07-11T08:27:40;12;11;
43280;PMS5003;62175;49.416;8.690;2022-07-11T08:30:08;9;9;
43280;PMS5003;62175;49.416;8.690;2022-07-11T08:32:37;9;9;
43280;PMS5003;62175;49.416;8.690;2022-07-11T08:35:05;9;9;
43280;PMS5003;62175;49.416;8.690;2022-07-11T08:37:34;9;9;
43280;PMS5003;62175;49.416;8.690;2022-07-11T08:40:02;6;6;
43280;PMS5003;62175;49.416;8.690;2022-07-11T08:42:29;8;8;
43280;PMS5003;62175;49.416;8.690;2022-07-11T08:44:57;8;8;
43280;PMS5003;62175;49.416;8.690;2022-07-11T08:47:26;8;8;
43280;PMS5003;62175;49.416;8.690;2022-07-11T08:49:54;11;10;
43280;PMS5003;62175;49.416;8.690;2022-07-11T08:52:25;9;9;
43280;PMS5003;62175;49.416;8.690;2022-07-11T08:54:53;9;8;
43280;PMS5003;62175;49.416;8.690;2022-07-11T08:57:22;9;9;
43280;PMS5003;62175;49.416;8.690;2022-07-11T08:59:49;11;11;
43280;PMS5003;62175;49.416;8.690;2022-07-11T09:02:19;10;10;
43280;PMS5003;62175;49.416;8.690;2022-07-11T09:04:48;9;8;
43280;PMS5003;62175;49.416;8.690;2022-07-11T09:07:15;9;9;
43280;PMS5003;62175;49.416;8.690;2022-07-11T09:09:42;12;12;
43280;PMS5003;62175;49.416;8.690;2022-07-11T09:12:10;12;12;
43280;PMS5003;62175;49.416;8.690;2022-07-11T09:14:39;8;8;
43280;PMS5003;62175;49.416;8.690;2022-07-11T09:17:06;12;12;
43280;PMS5003;62175;49.416;8.690;2022-07-11T09:19:34;9;9;
43280;PMS5003;62175;49.416;8.690;2022-07-11T09:22:03;8;8;
43280;PMS5003;62175;49.416;8.690;2022-07-11T09:24:35;9;8;
43280;PMS5003;62175;49.416;8.690;2022-07-11T09:27:02;9;9;
43280;PMS5003;62175;49.416;8.690;2022-07-11T09:29:37;11;11;
43280;PMS5003;62175;49.416;8.690;2022-07-11T09:32:04;9;9;
43280;PMS5003;62175;49.416;8.690;2022-07-11T09:34:32;10;10;
43280;PMS5003;62175;49.416;8.690;2022-07-11T09:36:59;6;6;
43280;PMS5003;62175;49.416;8.690;2022-07-11T09:39:26;9;7;
43280;PMS5003;62175;49.416;8.690;2022-07-11T09:41:55;8;7;
43280;PMS5003;62175;49.416;8.690;2022-07-11T09:44:24;7;7;
43280;PMS5003;62175;49.416;8.690;2022-07-11T09:46:52;8;8;
43280;PMS5003;62175;49.416;8.690;2022-07-11T09:49:29;10;9;
43280;PMS5003;62175;49.416;8.690;2022-07-11T09:52:06;8;8;
43280;PMS5003;62175;49.416;8.690;2022-07-11T09:54:33;6;6;
43280;PMS5003;62175;49.416;8.690;2022-07-11T09:57:18;7;7;
43280;PMS5003;62175;49.416;8.690;2022-07-11T09:59:45;8;7;
43280;PMS5003;62175;49.416;8.690;2022-07-11T10:02:21;9;9;
43280;PMS5003;62175;49.416;8.690;2022-07-11T10:04:49;9;8;
43280;PMS5003;62175;49.416;8.690;2022-07-11T10:07:17;5;5;
43280;PMS5003;62175;49.416;8.690;2022-07-11T10:09:45;10;10;
43280;PMS5003;62175;49.416;8.690;2022-07-11T10:12:12;7;7;
43280;PMS5003;62175;49.416;8.690;2022-07-11T10:14:41;6;6;
43280;PMS5003;62175;49.416;8.690;2022-07-11T10:17:11;8;8;
43280;PMS5003;62175;49.416;8.690;2022-07-11T10:19:46;8;8;
43280;PMS5003;62175;49.416;8.690;2022-07-11T10:22:19;8;8;
43280;PMS5003;62175;49.416;8.690;2022-07-11T10:24:56;8;8;
43280;PMS5003;62175;49.416;8.690;2022-07-11T10:27:32;11;11;
43280;PMS5003;62175;49.416;8.690;2022-07-11T10:30:06;8;8;
43280;PMS5003;62175;49.416;8.690;2022-07-11T10:33:07;9;9;
43280;PMS5003;62175;49.416;8.690;2022-07-11T10:35:34;10;9;
43280;PMS5003;62175;49.416;8.690;2022-07-11T10:38:04;8;8;
43280;PMS5003;62175;49.416;8.690;2022-07-11T10:40:48;8;8;
43280;PMS5003;62175;49.416;8.690;2022-07-11T10:43:33;7;7;
43280;PMS5003;62175;49.416;8.690;2022-07-11T10:46:03;8;8;
43280;PMS5003;62175;49.416;8.690;2022-07-11T10:48:32;6;6;
43280;PMS5003;62175;49.416;8.690;2022-07-11T10:51:11;7;7;
43280;PMS5003;62175;49.416;8.690;2022-07-11T10:53:49;8;7;
43280;PMS5003;62175;49.416;8.690;2022-07-11T10:56:21;6;6;
43280;PMS5003;62175;49.416;8.690;2022-07-11T10:59:04;7;7;
43280;PMS5003;62175;49.416;8.690;2022-07-11T11:02:00;6;6;
43280;PMS5003;62175;49.416;8.690;2022-07-11T11:04:46;7;7;
43280;PMS5003;62175;49.416;8.690;2022-07-11T11:07:46;7;7;
43280;PMS5003;62175;49.416;8.690;2022-07-11T11:10:45;7;6;
43280;PMS5003;62175;49.416;8.690;2022-07-11T11:13:13;6;6;
43280;PMS5003;62175;49.416;8.690;2022-07-11T11:15:40;7;7;
43280;PMS5003;62175;49.416;8.690;2022-07-11T11:18:42;7;7;
43280;PMS5003;62175;49.416;8.690;2022-07-11T11:21:13;7;7;
43280;PMS5003;62175;49.416;8.690;2022-07-11T11:23:43;9;8;
43280;PMS5003;62175;49.416;8.690;2022-07-11T11:26:14;7;7;
43280;PMS5003;62175;49.416;8.690;2022-07-11T11:28:59;6;6;
43280;PMS5003;62175;49.416;8.690;2022-07-11T11:31:29;6;6;
43280;PMS5003;62175;49.416;8.690;2022-07-11T11:33:56;7;7;
43280;PMS5003;62175;49.416;8.690;2022-07-11T11:36:25;7;7;
43280;PMS5003;62175;49.416;8.690;2022-07-11T11:38:53;6;6;
43280;PMS5003;62175;49.416;8.690;2022-07-11T11:41:22;9;8;
43280;PMS5003;62175;49.416;8.690;2022-07-11T11:43:50;7;7;
43280;PMS5003;62175;49.416;8.690;2022-07-11T11:46:18;7;7;
43280;PMS5003;62175;49.416;8.690;2022-07-11T11:48:45;4;4;
43280;PMS5003;62175;49.416;8.690;2022-07-11T11:51:12;7;6;
43280;PMS5003;62175;49.416;8.690;2022-07-11T11:53:41;7;7;
43280;PMS5003;62175;49.416;8.690;2022-07-11T11:56:11;8;8;
43280;PMS5003;62175;49.416;8.690;2022-07-11T11:58:40;8;8;
43280;PMS5003;62175;49.416;8.690;2022-07-11T12:01:08;6;6;
43280;PMS5003;62175;49.416;8.690;2022-07-11T12:03:52;8;8;
43280;PMS5003;62175;49.416;8.690;2022-07-11T12:06:22;10;10;
43280;PMS5003;62175;49.416;8.690;2022-07-11T12:08:50;6;6;
43280;PMS5003;62175;49.416;8.690;2022-07-11T12:11:18;6;6;
43280;PMS5003;62175;49.416;8.690;2022-07-11T12:13:45;7;6;
43280;PMS5003;62175;49.416;8.690;2022-07-11T12:16:14;8;8;
43280;PMS5003;62175;49.416;8.690;2022-07-11T12:18:41;6;5;
43280;PMS5003;62175;49.416;8.690;2022-07-11T12:21:09;5;5;
43280;PMS5003;62175;49.416;8.690;2022-07-11T12:23:37;6;6;
43280;PMS5003;62175;49.416;8.690;2022-07-11T12:26:05;6;5;
43280;PMS5003;62175;49.416;8.690;2022-07-11T12:28:32;6;6;
43280;PMS5003;62175;49.416;8.690;2022-07-11T12:30:59;6;6;
43280;PMS5003;62175;49.416;8.690;2022-07-11T12:33:26;7;7;
43280;PMS5003;62175;49.416;8.690;2022-07-11T12:35:54;7;7;
43280;PMS5003;62175;49.416;8.690;2022-07-11T12:38:24;6;6;
43280;PMS5003;62175;49.416;8.690;2022-07-11T12:40:59;7;5;
43280;PMS5003;62175;49.416;8.690;2022-07-11T12:43:43;7;6;
43280;PMS5003;62175;49.416;8.690;2022-07-11T12:46:13;7;7;
43280;PMS5003;62175;49.416;8.690;2022-07-11T12:48:40;9;8;
43280;PMS5003;62175;49.416;8.690;2022-07-11T12:51:08;7;7;
43280;PMS5003;62175;49.416;8.690;2022-07-11T12:53:35;9;7;
43280;PMS5003;62175;49.416;8.690;2022-07-11T12:56:02;8;8;
43280;PMS5003;62175;49.416;8.690;2022-07-11T12:58:37;7;7;
43280;PMS5003;62175;49.416;8.690;2022-07-11T13:01:05;5;5;
43280;PMS5003;62175;49.416;8.690;2022-07-11T13:03:32;7;7;
43280;PMS5003;62175;49.416;8.690;2022-07-11T13:06:01;8;8;
43280;PMS5003;62175;49.416;8.690;2022-07-11T13:08:30;6;6;
43280;PMS5003;62175;49.416;8.690;2022-07-11T13:10:58;8;7;
43280;PMS5003;62175;49.416;8.690;2022-07-11T13:13:25;6;6;
43280;PMS5003;62175;49.416;8.690;2022-07-11T13:15:53;7;7;
43280;PMS5003;62175;49.416;8.690;2022-07-11T13:18:20;7;7;
43280;PMS5003;62175;49.416;8.690;2022-07-11T13:20:47;7;6;
43280;PMS5003;62175;49.416;8.690;2022-07-11T13:23:13;9;9;
43280;PMS5003;62175;49.416;8.690;2022-07-11T13:25:40;6;6;
43280;PMS5003;62175;49.416;8.690;2022-07-11T13:28:07;8;7;
43280;PMS5003;62175;49.416;8.690;2022-07-11T13:30:35;8;8;
43280;PMS5003;62175;49.416;8.690;2022-07-11T13:33:02;11;8;
43280;PMS5003;62175;49.416;8.690;2022-07-11T13:35:30;6;6;
43280;PMS5003;62175;49.416;8.690;2022-07-11T13:37:57;9;8;
43280;PMS5003;62175;49.416;8.690;2022-07-11T13:40:24;8;8;
43280;PMS5003;62175;49.416;8.690;2022-07-11T13:42:51;7;7;
43280;PMS5003;62175;49.416;8.690;2022-07-11T13:45:19;5;5;
43280;PMS5003;62175;49.416;8.690;2022-07-11T13:47:47;5;5;
43280;PMS5003;62175;49.416;8.690;2022-07-11T13:50:17;7;7;
43280;PMS5003;62175;49.416;8.690;2022-07-11T13:52:44;8;7;
43280;PMS5003;62175;49.416;8.690;2022-07-11T13:55:11;7;6;
43280;PMS5003;62175;49.416;8.690;2022-07-11T13:57:37;5;5;
43280;PMS5003;62175;49.416;8.690;2022-07-11T14:00:05;8;8;
43280;PMS5003;62175;49.416;8.690;2022-07-11T14:02:33;6;6;
43280;PMS5003;62175;49.416;8.690;2022-07-11T14:05:00;8;8;
43280;PMS5003;62175;49.416;8.690;2022-07-11T14:07:27;6;6;
43280;PMS5003;62175;49.416;8.690;2022-07-11T14:09:55;8;8;
43280;PMS5003;62175;49.416;8.690;2022-07-11T14:12:24;8;8;
43280;PMS5003;62175;49.416;8.690;2022-07-11T14:14:51;7;7;
43280;PMS5003;62175;49.416;8.690;2022-07-11T14:17:18;7;7;
43280;PMS5003;62175;49.416;8.690;2022-07-11T14:19:45;6;6;
43280;PMS5003;62175;49.416;8.690;2022-07-11T14:22:13;8;8;
43280;PMS5003;62175;49.416;8.690;2022-07-11T14:24:40;5;5;
43280;PMS5003;62175;49.416;8.690;2022-07-11T14:27:07;7;6;
43280;PMS5003;62175;49.416;8.690;2022-07-11T14:29:35;8;8;
43280;PMS5003;62175;49.416;8.690;2022-07-11T14:32:02;7;7;
43280;PMS5003;62175;49.416;8.690;2022-07-11T14:34:30;8;8;
43280;PMS5003;62175;49.416;8.690;2022-07-11T14:36:57;7;7;
43280;PMS5003;62175;49.416;8.690;2022-07-11T14:39:24;7;5;
43280;PMS5003;62175;49.416;8.690;2022-07-11T14:41:51;7;7;
43280;PMS5003;62175;49.416;8.690;2022-07-11T14:44:17;6;6;
43280;PMS5003;62175;49.416;8.690;2022-07-11T14:46:52;7;7;
43280;PMS5003;62175;49.416;8.690;2022-07-11T14:49:22;9;7;
43280;PMS5003;62175;49.416;8.690;2022-07-11T14:51:48;7;7;
43280;PMS5003;62175;49.416;8.690;2022-07-11T14:54:15;7;7;
43280;PMS5003;62175;49.416;8.690;2022-07-11T14:56:42;6;6;
43280;PMS5003;62175;49.416;8.690;2022-07-11T14:59:09;6;6;
43280;PMS5003;62175;49.416;8.690;2022-07-11T15:01:37;6;5;
43280;PMS5003;62175;49.416;8.690;2022-07-11T15:04:04;6;6;
43280;PMS5003;62175;49.416;8.690;2022-07-11T15:06:30;7;6;
43280;PMS5003;62175;49.416;8.690;2022-07-11T15:08:58;6;6;
43280;PMS5003;62175;49.416;8.690;2022-07-11T15:11:25;5;5;
43280;PMS5003;62175;49.416;8.690;2022-07-11T15:13:53;4;4;
43280;PMS5003;62175;49.416;8.690;2022-07-11T15:16:20;7;7;
43280;PMS5003;62175;49.416;8.690;2022-07-11T15:18:47;4;4;
43280;PMS5003;62175;49.416;8.690;2022-07-11T15:21:14;5;5;
43280;PMS5003;62175;49.416;8.690;2022-07-11T15:23:41;6;6;
43280;PMS5003;62175;49.416;8.690;2022-07-11T15:26:08;6;5;
43280;PMS5003;62175;49.416;8.690;2022-07-11T15:28:35;5;5;
43280;PMS5003;62175;49.416;8.690;2022-07-11T15:31:03;7;6;
43280;PMS5003;62175;49.416;8.690;2022-07-11T15:33:29;5;4;
43280;PMS5003;62175;49.416;8.690;2022-07-11T15:35:56;6;6;
43280;PMS5003;62175;49.416;8.690;2022-07-11T15:38:23;6;5;
43280;PMS5003;62175;49.416;8.690;2022-07-11T15:40:50;5;5;
43280;PMS5003;62175;49.416;8.690;2022-07-11T15:43:18;5;4;
43280;PMS5003;62175;49.416;8.690;2022-07-11T15:45:46;6;6;
43280;PMS5003;62175;49.416;8.690;2022-07-11T15:48:13;3;3;
43280;PMS5003;62175;49.416;8.690;2022-07-11T15:50:40;4;4;
43280;PMS5003;62175;49.416;8.690;2022-07-11T15:53:07;4;4;
43280;PMS5003;62175;49.416;8.690;2022-07-11T15:55:35;5;4;
43280;PMS5003;62175;49.416;8.690;2022-07-11T15:58:02;6;5;
43280;PMS5003;62175;49.416;8.690;2022-07-11T16:00:29;5;5;
43280;PMS5003;62175;49.416;8.690;2022-07-11T16:02:56;5;5;
43280;PMS5003;62175;49.416;8.690;2022-07-11T16:05:23;5;5;
43280;PMS5003;62175;49.416;8.690;2022-07-11T16:07:51;5;5;
43280;PMS5003;62175;49.416;8.690;2022-07-11T16:10:19;8;7;
43280;PMS5003;62175;49.416;8.690;2022-07-11T16:12:45;5;5;
43280;PMS5003;62175;49.416;8.690;2022-07-11T16:15:12;5;5;
43280;PMS5003;62175;49.416;8.690;2022-07-11T16:17:39;4;4;
43280;PMS5003;62175;49.416;8.690;2022-07-11T16:20:07;5;5;
43280;PMS5003;62175;49.416;8.690;2022-07-11T16:22:36;7;7;
43280;PMS5003;62175;49.416;8.690;2022-07-11T16:25:03;6;6;
43280;PMS5003;62175;49.416;8.690;2022-07-11T16:27:31;7;7;
43280;PMS5003;62175;49.416;8.690;2022-07-11T16:29:59;7;7;
43280;PMS5003;62175;49.416;8.690;2022-07-11T16:32:26;7;6;
43280;PMS5003;62175;49.416;8.690;2022-07-11T16:34:53;6;5;
43280;PMS5003;62175;49.416;8.690;2022-07-11T16:37:20;6;6;
43280;PMS5003;62175;49.416;8.690;2022-07-11T16:39:48;7;7;
43280;PMS5003;62175;49.416;8.690;2022-07-11T16:42:16;6;5;
43280;PMS5003;62175;49.416;8.690;2022-07-11T16:44:43;6;6;
43280;PMS5003;62175;49.416;8.690;2022-07-11T16:47:14;4;4;
43280;PMS5003;62175;49.416;8.690;2022-07-11T16:47:56;4;4;
43280;PMS5003;62175;49.416;8.690;2022-07-11T16:50:30;8;6;
43280;PMS5003;62175;49.416;8.690;2022-07-11T16:52:57;8;7;
43280;PMS5003;62175;49.416;8.690;2022-07-11T16:55:25;7;6;
43280;PMS5003;62175;49.416;8.690;2022-07-11T16:57:53;7;7;
43280;PMS5003;62175;49.416;8.690;2022-07-11T17:00:20;7;7;
43280;PMS5003;62175;49.416;8.690;2022-07-11T17:02:48;8;7;
43280;PMS5003;62175;49.416;8.690;2022-07-11T17:05:15;5;5;
43280;PMS5003;62175;49.416;8.690;2022-07-11T17:07:42;9;6;
43280;PMS5003;62175;49.416;8.690;2022-07-11T17:10:10;8;8;
43280;PMS5003;62175;49.416;8.690;2022-07-11T17:12:38;6;6;
43280;PMS5003;62175;49.416;8.690;2022-07-11T17:15:05;8;8;